createdAt,value
2017-03-20T00:00:35.896Z,12.63
2017-03-20T00:01:16.426Z,12.6
2017-03-20T00:01:56.891Z,12.59
2017-03-20T00:02:37.361Z,12.57
2017-03-20T00:03:17.845Z,12.62
2017-03-20T00:03:58.336Z,12.54
2017-03-20T00:04:38.822Z,12.64
2017-03-20T00:05:19.298Z,12.56
2017-03-20T00:05:59.786Z,12.57
2017-03-20T00:06:40.270Z,12.56
2017-03-20T00:07:20.768Z,12.59
2017-03-20T00:08:01.260Z,12.59
2017-03-20T00:08:41.737Z,12.62
2017-03-20T00:09:22.241Z,12.59
2017-03-20T00:10:02.724Z,12.59
2017-03-20T00:10:43.231Z,12.56
2017-03-20T00:11:23.717Z,12.56
2017-03-20T00:12:04.225Z,12.56
2017-03-20T00:12:44.701Z,12.57
2017-03-20T00:13:25.195Z,12.52
2017-03-20T00:14:05.690Z,12.54
2017-03-20T00:14:46.181Z,12.62
2017-03-20T00:15:26.678Z,12.56
2017-03-20T00:16:07.172Z,12.63
2017-03-20T00:16:47.660Z,12.63
2017-03-20T00:17:28.151Z,12.56
2017-03-20T00:18:08.631Z,12.57
2017-03-20T00:18:49.131Z,12.52
2017-03-20T00:19:30.146Z,12.56
2017-03-20T00:20:10.653Z,12.56
2017-03-20T00:20:51.120Z,12.6
2017-03-20T00:21:31.621Z,12.59
2017-03-20T00:22:12.115Z,12.59
2017-03-20T00:22:52.604Z,12.56
2017-03-20T00:23:33.096Z,12.52
2017-03-20T00:24:13.591Z,12.56
2017-03-20T00:24:54.086Z,12.51
2017-03-20T00:25:34.575Z,12.56
2017-03-20T00:26:15.070Z,12.54
2017-03-20T00:26:55.540Z,12.59
2017-03-20T00:27:36.033Z,12.62
2017-03-20T00:28:16.510Z,12.48
2017-03-20T00:28:57.000Z,12.51
2017-03-20T00:29:37.534Z,12.49
2017-03-20T00:30:17.988Z,12.45
2017-03-20T00:30:58.480Z,12.45
2017-03-20T00:31:38.968Z,12.45
2017-03-20T00:32:19.462Z,12.49
2017-03-20T00:32:59.958Z,12.52
2017-03-20T00:33:40.454Z,12.6
2017-03-20T00:34:20.936Z,12.6
2017-03-20T00:35:01.430Z,12.59
2017-03-20T00:35:41.917Z,12.46
2017-03-20T00:36:22.393Z,12.48
2017-03-20T00:37:02.887Z,12.45
2017-03-20T00:37:43.375Z,12.48
2017-03-20T00:38:23.872Z,12.48
2017-03-20T00:39:04.367Z,12.46
2017-03-20T00:39:44.873Z,12.44
2017-03-20T00:40:25.368Z,12.49
2017-03-20T00:41:05.863Z,12.49
2017-03-20T00:41:46.359Z,12.45
2017-03-20T00:42:26.827Z,12.46
2017-03-20T00:43:07.318Z,12.44
2017-03-20T00:43:47.799Z,12.45
2017-03-20T00:44:28.292Z,12.46
2017-03-20T00:45:08.766Z,12.44
2017-03-20T00:45:49.262Z,12.44
2017-03-20T00:46:29.765Z,12.45
2017-03-20T00:47:10.261Z,12.45
2017-03-20T00:47:50.727Z,12.48
2017-03-20T00:48:31.224Z,12.44
2017-03-20T00:49:11.704Z,12.46
2017-03-20T00:49:52.206Z,12.44
2017-03-20T00:50:32.696Z,12.46
2017-03-20T00:51:13.184Z,12.46
2017-03-20T00:51:53.675Z,12.49
2017-03-20T00:52:34.167Z,12.45
2017-03-20T00:53:14.659Z,12.44
2017-03-20T00:53:55.151Z,12.42
2017-03-20T00:54:35.654Z,12.44
2017-03-20T00:55:16.136Z,12.45
2017-03-20T00:55:56.629Z,12.48
2017-03-20T00:56:37.123Z,12.48
2017-03-20T00:57:17.615Z,12.34
2017-03-20T00:57:58.105Z,12.41
2017-03-20T00:58:38.604Z,12.41
2017-03-20T00:59:19.077Z,12.37
2017-03-20T00:59:59.559Z,12.34
2017-03-20T01:00:40.054Z,12.45
2017-03-20T01:01:20.550Z,12.45
2017-03-20T01:02:01.039Z,12.33
2017-03-20T01:02:41.521Z,12.41
2017-03-20T01:03:22.019Z,12.31
2017-03-20T01:04:02.505Z,12.41
2017-03-20T01:04:42.996Z,12.34
2017-03-20T01:05:23.491Z,12.37
2017-03-20T01:06:03.968Z,12.41
2017-03-20T01:06:44.445Z,12.37
2017-03-20T01:07:24.945Z,12.44
2017-03-20T01:08:05.430Z,12.39
2017-03-20T01:08:45.912Z,12.29
2017-03-20T01:09:26.406Z,12.29
2017-03-20T01:10:06.898Z,12.31
2017-03-20T01:10:47.389Z,12.31
2017-03-20T01:11:27.884Z,12.33
2017-03-20T01:12:08.380Z,12.38
2017-03-20T01:12:48.866Z,12.3
2017-03-20T01:13:29.366Z,12.34
2017-03-20T01:14:09.859Z,12.38
2017-03-20T01:14:50.373Z,12.31
2017-03-20T01:15:30.871Z,12.29
2017-03-20T01:16:11.360Z,12.31
2017-03-20T01:16:51.818Z,12.26
2017-03-20T01:17:32.316Z,12.31
2017-03-20T01:18:12.808Z,12.38
2017-03-20T01:18:53.293Z,12.3
2017-03-20T01:19:33.794Z,12.3
2017-03-20T01:20:14.291Z,12.23
2017-03-20T01:20:54.779Z,12.31
2017-03-20T01:21:35.273Z,12.39
2017-03-20T01:22:15.763Z,12.38
2017-03-20T01:22:56.254Z,12.23
2017-03-20T01:23:36.746Z,12.27
2017-03-20T01:24:17.232Z,12.34
2017-03-20T01:24:57.731Z,12.33
2017-03-20T01:25:38.218Z,12.33
2017-03-20T01:26:18.682Z,12.29
2017-03-20T01:26:59.167Z,12.24
2017-03-20T01:27:39.665Z,12.3
2017-03-20T01:28:20.152Z,12.3
2017-03-20T01:29:00.615Z,12.3
2017-03-20T01:29:41.060Z,12.26
2017-03-20T01:30:21.519Z,12.33
2017-03-20T01:31:01.963Z,12.2
2017-03-20T01:31:42.413Z,12.27
2017-03-20T01:32:22.910Z,12.15
2017-03-20T01:33:03.377Z,12.24
2017-03-20T01:33:43.868Z,12.27
2017-03-20T01:34:24.311Z,12.31
2017-03-20T01:36:37.031Z,12.15
2017-03-20T01:37:17.486Z,12.24
2017-03-20T01:37:57.960Z,12.24
2017-03-20T01:38:38.444Z,12.26
2017-03-20T01:39:18.922Z,12.27
2017-03-20T01:39:59.414Z,12.12
2017-03-20T01:40:39.918Z,12.16
2017-03-20T01:41:20.401Z,12.19
2017-03-20T01:42:00.901Z,12.2
2017-03-20T01:42:41.389Z,12.12
2017-03-20T01:43:21.880Z,12.2
2017-03-20T01:44:02.376Z,12.13
2017-03-20T01:44:42.870Z,12.19
2017-03-20T01:45:23.360Z,12.16
2017-03-20T01:46:03.825Z,12.24
2017-03-20T01:46:44.308Z,12.2
2017-03-20T01:47:24.801Z,12.13
2017-03-20T01:48:05.289Z,12.21
2017-03-20T01:48:45.780Z,12.23
2017-03-20T01:49:26.269Z,12.2
2017-03-20T01:50:06.767Z,12.15
2017-03-20T01:50:47.248Z,12.11
2017-03-20T01:51:27.735Z,12.06
2017-03-20T01:52:08.244Z,12.08
2017-03-20T01:52:48.742Z,12.21
2017-03-20T01:53:29.237Z,12.21
2017-03-20T01:54:09.727Z,12.2
2017-03-20T01:54:50.216Z,12.21
2017-03-20T01:55:30.690Z,12.16
2017-03-20T01:56:11.192Z,12.16
2017-03-20T01:56:51.671Z,12.19
2017-03-20T01:57:32.167Z,12.2
2017-03-20T01:58:12.646Z,12.19
2017-03-20T01:58:53.131Z,12.21
2017-03-20T01:59:33.628Z,12.21
2017-03-20T02:00:14.122Z,12.19
2017-03-20T02:00:54.622Z,12.16
2017-03-20T02:01:35.092Z,12.13
2017-03-20T02:02:15.565Z,12.2
2017-03-20T02:02:56.057Z,12.11
2017-03-20T02:03:36.548Z,12.08
2017-03-20T02:04:17.024Z,12.2
2017-03-20T02:04:57.501Z,12.16
2017-03-20T02:05:37.993Z,12.23
2017-03-20T02:06:18.485Z,12.13
2017-03-20T02:06:58.983Z,12.16
2017-03-20T02:07:39.473Z,12.2
2017-03-20T02:08:19.964Z,12.15
2017-03-20T02:09:00.455Z,12.19
2017-03-20T02:10:47.912Z,12.15
2017-03-20T02:11:28.414Z,12.2
2017-03-20T02:12:08.869Z,12.15
2017-03-20T02:12:49.353Z,12.21
2017-03-20T02:13:29.838Z,12.12
2017-03-20T02:14:10.337Z,12.19
2017-03-20T02:14:50.817Z,12.2
2017-03-20T02:15:31.314Z,12.15
2017-03-20T02:16:11.808Z,12.27
2017-03-20T02:16:52.294Z,12.15
2017-03-20T02:17:32.787Z,12.19
2017-03-20T02:18:13.287Z,12.2
2017-03-20T02:18:53.774Z,12.15
2017-03-20T02:19:34.266Z,12.24
2017-03-20T02:20:14.762Z,12.21
2017-03-20T02:20:55.250Z,12.24
2017-03-20T02:21:35.746Z,12.21
2017-03-20T02:22:16.241Z,12.26
2017-03-20T02:22:57.705Z,12.13
2017-03-20T02:23:38.206Z,12.26
2017-03-20T02:24:18.699Z,12.15
2017-03-20T02:24:59.179Z,12.23
2017-03-20T02:25:39.683Z,12.23
2017-03-20T02:26:20.969Z,12.09
2017-03-20T02:27:01.462Z,12.16
2017-03-20T02:27:41.956Z,12.21
2017-03-20T02:28:22.440Z,12.2
2017-03-20T02:29:02.935Z,12.16
2017-03-20T02:29:43.439Z,12.15
2017-03-20T02:30:23.916Z,12.15
2017-03-20T02:31:04.378Z,12.19
2017-03-20T02:31:44.871Z,12.23
2017-03-20T02:32:25.369Z,12.24
2017-03-20T02:33:05.853Z,12.15
2017-03-20T02:33:46.349Z,12.23
2017-03-20T02:34:26.843Z,12.19
2017-03-20T02:35:07.327Z,12.19
2017-03-20T02:35:47.818Z,12.23
2017-03-20T02:36:28.319Z,12.19
2017-03-20T02:37:08.808Z,12.23
2017-03-20T02:37:49.304Z,12.19
2017-03-20T02:38:29.799Z,12.24
2017-03-20T02:39:10.259Z,12.15
2017-03-20T02:39:50.754Z,12.16
2017-03-20T02:40:31.236Z,12.15
2017-03-20T02:41:11.733Z,12.15
2017-03-20T02:41:52.219Z,12.19
2017-03-20T02:42:32.714Z,12.23
2017-03-20T02:43:13.216Z,12.23
2017-03-20T02:43:53.696Z,12.13
2017-03-20T02:44:34.192Z,12.23
2017-03-20T02:45:14.686Z,12.15
2017-03-20T02:45:55.174Z,12.23
2017-03-20T02:46:35.667Z,12.15
2017-03-20T02:47:16.156Z,12.21
2017-03-20T02:47:56.637Z,12.24
2017-03-20T02:48:37.146Z,12.21
2017-03-20T02:49:17.690Z,12.12
2017-03-20T02:49:58.128Z,12.13
2017-03-20T02:50:38.625Z,12.21
2017-03-20T02:51:19.159Z,12.13
2017-03-20T02:51:59.606Z,12.19
2017-03-20T02:52:40.102Z,12.19
2017-03-20T02:53:20.598Z,12.21
2017-03-20T02:54:01.085Z,12.13
2017-03-20T02:54:41.585Z,12.2
2017-03-20T02:55:22.073Z,12.15
2017-03-20T02:56:02.573Z,12.09
2017-03-20T02:56:43.067Z,12.13
2017-03-20T02:57:23.577Z,12.09
2017-03-20T02:58:04.073Z,12.19
2017-03-20T02:58:44.569Z,12.16
2017-03-20T02:59:25.055Z,12.11
2017-03-20T03:00:05.512Z,12.15
2017-03-20T03:00:46.008Z,12.06
2017-03-20T03:01:26.505Z,12.11
2017-03-20T03:02:06.992Z,12.15
2017-03-20T03:02:47.487Z,12.09
2017-03-20T03:03:27.978Z,12.15
2017-03-20T03:04:08.469Z,12.09
2017-03-20T03:04:48.963Z,12.09
2017-03-20T03:05:29.560Z,12.09
2017-03-20T03:06:09.943Z,12.06
2017-03-20T03:06:50.444Z,12.05
2017-03-20T03:07:30.935Z,12.11
2017-03-20T03:08:11.422Z,12.15
2017-03-20T03:08:51.916Z,12.02
2017-03-20T03:09:32.411Z,12.08
2017-03-20T03:10:12.909Z,12.05
2017-03-20T03:10:53.399Z,12.02
2017-03-20T03:11:33.890Z,12.08
2017-03-20T03:12:14.387Z,12.06
2017-03-20T03:12:54.879Z,12.05
2017-03-20T03:13:35.368Z,12.12
2017-03-20T03:14:15.855Z,12.01
2017-03-20T03:14:56.347Z,12.01
2017-03-20T03:15:36.841Z,12.04
2017-03-20T03:16:17.331Z,11.97
2017-03-20T03:16:57.827Z,11.94
2017-03-20T03:17:38.324Z,11.96
2017-03-20T03:18:18.808Z,11.93
2017-03-20T03:18:59.303Z,11.97
2017-03-20T03:19:39.796Z,11.94
2017-03-20T03:20:20.281Z,12.01
2017-03-20T03:21:00.779Z,11.89
2017-03-20T03:21:41.276Z,11.9
2017-03-20T03:22:21.772Z,11.94
2017-03-20T03:23:02.259Z,11.9
2017-03-20T03:23:42.754Z,11.89
2017-03-20T03:24:23.239Z,11.94
2017-03-20T03:25:03.733Z,11.93
2017-03-20T03:25:44.233Z,11.97
2017-03-20T03:26:24.734Z,11.96
2017-03-20T03:27:05.230Z,11.89
2017-03-20T03:27:45.735Z,11.82
2017-03-20T03:28:26.229Z,11.86
2017-03-20T03:29:06.727Z,11.89
2017-03-20T03:29:47.218Z,11.97
2017-03-20T03:30:27.710Z,11.97
2017-03-20T03:31:08.207Z,11.87
2017-03-20T03:31:48.703Z,11.94
2017-03-20T03:32:29.187Z,11.94
2017-03-20T03:33:09.683Z,11.89
2017-03-20T03:33:50.204Z,11.96
2017-03-20T03:34:30.660Z,11.89
2017-03-20T03:35:11.158Z,11.9
2017-03-20T03:35:51.650Z,11.83
2017-03-20T03:36:32.143Z,11.87
2017-03-20T03:37:12.638Z,11.93
2017-03-20T03:37:53.121Z,11.93
2017-03-20T03:38:34.311Z,11.78
2017-03-20T03:39:14.801Z,11.93
2017-03-20T03:39:55.319Z,11.9
2017-03-20T03:40:35.810Z,11.89
2017-03-20T03:41:16.307Z,11.89
2017-03-20T03:41:56.787Z,11.89
2017-03-20T03:42:37.285Z,11.87
2017-03-20T03:43:17.783Z,11.97
2017-03-20T03:43:58.268Z,11.93
2017-03-20T03:44:38.768Z,11.93
2017-03-20T03:45:19.254Z,11.85
2017-03-20T03:45:59.745Z,11.86
2017-03-20T03:46:40.221Z,11.85
2017-03-20T03:47:20.712Z,11.87
2017-03-20T03:48:01.208Z,11.94
2017-03-20T03:48:41.693Z,11.83
2017-03-20T03:49:22.185Z,11.89
2017-03-20T03:50:02.684Z,11.9
2017-03-20T03:50:43.175Z,11.89
2017-03-20T03:51:24.411Z,11.82
2017-03-20T03:52:04.896Z,11.93
2017-03-20T03:52:45.390Z,11.83
2017-03-20T03:53:25.885Z,11.94
2017-03-20T03:54:06.371Z,11.77
2017-03-20T03:54:46.865Z,11.96
2017-03-20T03:55:27.365Z,12.01
2017-03-20T03:56:07.850Z,11.94
2017-03-20T03:56:48.341Z,11.9
2017-03-20T03:57:28.837Z,11.85
2017-03-20T03:58:09.325Z,11.99
2017-03-20T03:58:49.815Z,11.85
2017-03-20T03:59:30.320Z,11.86
2017-03-20T04:00:10.796Z,11.8
2017-03-20T04:00:51.292Z,11.85
2017-03-20T04:01:31.799Z,11.77
2017-03-20T04:02:12.290Z,11.83
2017-03-20T04:02:52.799Z,11.87
2017-03-20T04:03:33.307Z,11.87
2017-03-20T04:04:13.778Z,11.89
2017-03-20T04:04:54.274Z,11.93
2017-03-20T04:05:34.778Z,11.89
2017-03-20T04:06:15.282Z,11.89
2017-03-20T04:06:55.810Z,11.9
2017-03-20T04:07:36.269Z,11.89
2017-03-20T04:08:16.786Z,11.8
2017-03-20T04:08:57.274Z,11.85
2017-03-20T04:09:37.762Z,11.89
2017-03-20T04:10:19.226Z,11.8
2017-03-20T04:10:59.711Z,11.94
2017-03-20T04:11:40.184Z,11.87
2017-03-20T04:12:20.692Z,11.87
2017-03-20T04:13:01.185Z,11.93
2017-03-20T04:13:41.681Z,11.96
2017-03-20T04:14:22.166Z,11.89
2017-03-20T04:15:02.661Z,11.86
2017-03-20T04:15:43.161Z,11.97
2017-03-20T04:16:23.641Z,11.97
2017-03-20T04:17:04.133Z,11.86
2017-03-20T04:17:44.643Z,11.9
2017-03-20T04:18:25.113Z,11.96
2017-03-20T04:19:05.589Z,11.96
2017-03-20T04:19:46.080Z,11.93
2017-03-20T04:20:26.572Z,11.99
2017-03-20T04:21:07.056Z,11.93
2017-03-20T04:21:47.550Z,11.9
2017-03-20T04:22:28.045Z,11.97
2017-03-20T04:23:08.534Z,11.89
2017-03-20T04:23:49.030Z,11.93
2017-03-20T04:24:29.519Z,11.94
2017-03-20T04:25:09.995Z,11.94
2017-03-20T04:25:50.483Z,11.96
2017-03-20T04:26:30.981Z,11.96
2017-03-20T04:27:11.486Z,11.94
2017-03-20T04:27:52.029Z,11.97
2017-03-20T04:28:32.452Z,11.97
2017-03-20T04:29:12.944Z,11.94
2017-03-20T04:29:53.430Z,12.02
2017-03-20T04:30:33.925Z,11.94
2017-03-20T04:31:14.410Z,11.94
2017-03-20T04:31:54.937Z,11.94
2017-03-20T04:32:35.440Z,11.93
2017-03-20T04:33:16.505Z,11.93
2017-03-20T04:33:56.992Z,11.94
2017-03-20T04:34:37.487Z,12.04
2017-03-20T04:35:17.981Z,12.01
2017-03-20T04:35:58.470Z,12.05
2017-03-20T04:36:38.963Z,12.05
2017-03-20T04:37:19.439Z,11.99
2017-03-20T04:37:59.937Z,11.94
2017-03-20T04:38:40.434Z,12.01
2017-03-20T04:39:20.935Z,12.06
2017-03-20T04:40:01.420Z,12.05
2017-03-20T04:40:41.920Z,12.01
2017-03-20T04:41:22.414Z,12.01
2017-03-20T04:42:02.906Z,12.05
2017-03-20T04:42:43.401Z,12.05
2017-03-20T04:43:23.891Z,12.04
2017-03-20T04:44:04.380Z,12.04
2017-03-20T04:44:44.873Z,11.97
2017-03-20T04:45:25.365Z,12.02
2017-03-20T04:46:05.854Z,12.05
2017-03-20T04:46:46.350Z,12.04
2017-03-20T04:47:26.846Z,12.04
2017-03-20T04:48:07.331Z,11.96
2017-03-20T04:48:47.826Z,11.96
2017-03-20T04:49:28.327Z,11.93
2017-03-20T04:50:08.806Z,11.9
2017-03-20T04:50:49.304Z,12.06
2017-03-20T04:51:29.796Z,12.02
2017-03-20T04:52:10.286Z,12.02
2017-03-20T04:52:50.780Z,11.99
2017-03-20T04:53:31.281Z,11.97
2017-03-20T04:54:11.770Z,11.96
2017-03-20T04:54:52.264Z,12.05
2017-03-20T04:55:32.756Z,11.94
2017-03-20T04:56:13.197Z,11.97
2017-03-20T04:56:53.697Z,11.99
2017-03-20T04:57:34.198Z,12.02
2017-03-20T04:58:14.668Z,11.96
2017-03-20T04:58:55.179Z,12.04
2017-03-20T04:59:35.668Z,12.11
2017-03-20T05:00:16.202Z,12.05
2017-03-20T05:00:56.654Z,12.06
2017-03-20T05:01:37.153Z,12.09
2017-03-20T05:02:17.637Z,12.05
2017-03-20T05:02:58.133Z,12.06
2017-03-20T05:03:38.647Z,12.04
2017-03-20T05:04:19.093Z,12.08
2017-03-20T05:04:59.605Z,12.06
2017-03-20T05:05:40.102Z,12.15
2017-03-20T05:06:20.594Z,12.09
2017-03-20T05:07:01.074Z,12.09
2017-03-20T05:07:41.573Z,12.04
2017-03-20T05:08:22.074Z,12.09
2017-03-20T05:09:02.563Z,12.06
2017-03-20T05:09:43.053Z,12.05
2017-03-20T05:10:23.559Z,12.11
2017-03-20T05:11:04.050Z,12.05
2017-03-20T05:11:44.543Z,12.06
2017-03-20T05:12:25.028Z,12.11
2017-03-20T05:13:05.524Z,12.11
2017-03-20T05:13:46.015Z,12.12
2017-03-20T05:14:26.505Z,12.08
2017-03-20T05:15:07.032Z,12.06
2017-03-20T05:15:47.441Z,12.11
2017-03-20T05:16:27.939Z,12.06
2017-03-20T05:17:08.441Z,12.08
2017-03-20T05:17:48.927Z,12.06
2017-03-20T05:18:29.422Z,12.09
2017-03-20T05:19:09.920Z,12.08
2017-03-20T05:19:50.406Z,12.11
2017-03-20T05:20:30.903Z,12.08
2017-03-20T05:21:11.397Z,12.06
2017-03-20T05:21:51.880Z,12.13
2017-03-20T05:22:32.376Z,12.15
2017-03-20T05:23:12.868Z,12.16
2017-03-20T05:23:53.359Z,12.13
2017-03-20T05:24:33.853Z,12.06
2017-03-20T05:25:14.348Z,12.15
2017-03-20T05:25:54.835Z,12.12
2017-03-20T05:26:35.338Z,12.16
2017-03-20T05:27:15.829Z,12.13
2017-03-20T05:27:56.314Z,12.12
2017-03-20T05:28:36.808Z,12.12
2017-03-20T05:29:17.301Z,12.09
2017-03-20T05:29:57.791Z,12.19
2017-03-20T05:30:38.285Z,12.02
2017-03-20T05:31:18.780Z,12.19
2017-03-20T05:31:59.267Z,12.08
2017-03-20T05:32:39.763Z,12.12
2017-03-20T05:33:20.257Z,12.11
2017-03-20T05:34:00.744Z,12.15
2017-03-20T05:34:41.236Z,12.15
2017-03-20T05:35:21.734Z,12.16
2017-03-20T05:36:02.223Z,12.12
2017-03-20T05:36:42.720Z,12.15
2017-03-20T05:37:23.211Z,12.09
2017-03-20T05:38:03.699Z,12.15
2017-03-20T05:38:44.194Z,12.09
2017-03-20T05:39:24.686Z,12.12
2017-03-20T05:40:05.179Z,12.11
2017-03-20T05:40:45.671Z,12.15
2017-03-20T05:41:26.169Z,12.13
2017-03-20T05:42:06.654Z,12.15
2017-03-20T05:42:47.149Z,12.12
2017-03-20T05:43:27.645Z,12.16
2017-03-20T05:44:08.134Z,12.19
2017-03-20T05:44:48.611Z,12.13
2017-03-20T05:45:29.104Z,12.12
2017-03-20T05:46:09.583Z,12.08
2017-03-20T05:46:50.063Z,12.11
2017-03-20T05:47:30.554Z,12.11
2017-03-20T05:48:11.049Z,12.09
2017-03-20T05:48:51.534Z,12.12
2017-03-20T05:49:33.042Z,12.12
2017-03-20T05:50:13.533Z,12.16
2017-03-20T05:50:54.041Z,12.09
2017-03-20T05:51:34.541Z,12.11
2017-03-20T05:52:15.029Z,12.06
2017-03-20T05:52:55.523Z,12.08
2017-03-20T05:53:35.987Z,12.16
2017-03-20T05:54:16.472Z,12.13
2017-03-20T05:54:56.933Z,12.11
2017-03-20T05:55:37.925Z,12.11
2017-03-20T05:56:18.428Z,12.09
2017-03-20T05:56:58.900Z,12.11
2017-03-20T05:57:39.379Z,12.11
2017-03-20T05:58:19.876Z,12.16
2017-03-20T05:59:00.365Z,12.12
2017-03-20T05:59:40.823Z,12.12
2017-03-20T06:00:21.329Z,12.23
2017-03-20T06:01:01.842Z,12.21
2017-03-20T06:01:42.345Z,12.21
2017-03-20T06:02:22.834Z,12.13
2017-03-20T06:03:03.313Z,12.2
2017-03-20T06:03:43.807Z,12.21
2017-03-20T06:04:24.285Z,12.16
2017-03-20T06:05:04.792Z,12.24
2017-03-20T06:05:45.308Z,12.21
2017-03-20T06:06:25.807Z,12.19
2017-03-20T06:07:06.301Z,12.21
2017-03-20T06:08:53.747Z,12.24
2017-03-20T06:09:34.237Z,12.16
2017-03-20T06:10:14.743Z,12.15
2017-03-20T06:10:55.211Z,12.2
2017-03-20T06:11:35.690Z,12.13
2017-03-20T06:12:16.185Z,12.16
2017-03-20T06:12:56.670Z,12.21
2017-03-20T06:13:37.173Z,12.21
2017-03-20T06:14:17.632Z,12.13
2017-03-20T06:14:58.128Z,12.2
2017-03-20T06:15:38.617Z,12.24
2017-03-20T06:16:19.084Z,12.13
2017-03-20T06:16:59.574Z,12.26
2017-03-20T06:17:40.076Z,12.19
2017-03-20T06:18:20.581Z,12.19
2017-03-20T06:19:01.055Z,12.27
2017-03-20T06:19:41.556Z,12.27
2017-03-20T06:20:22.032Z,12.23
2017-03-20T06:21:02.515Z,12.26
2017-03-20T06:21:43.013Z,12.13
2017-03-20T06:22:23.487Z,12.27
2017-03-20T06:23:03.984Z,12.15
2017-03-20T06:23:44.467Z,12.23
2017-03-20T06:24:24.973Z,12.26
2017-03-20T06:25:05.469Z,12.23
2017-03-20T06:25:45.935Z,12.33
2017-03-20T06:26:26.415Z,12.41
2017-03-20T06:27:06.906Z,12.38
2017-03-20T06:27:47.412Z,12.45
2017-03-20T06:28:27.902Z,12.49
2017-03-20T06:29:08.404Z,12.45
2017-03-20T06:29:48.902Z,12.44
2017-03-20T06:30:29.407Z,12.48
2017-03-20T06:31:09.892Z,12.48
2017-03-20T06:31:50.397Z,12.46
2017-03-20T06:32:30.878Z,12.49
2017-03-20T06:33:11.374Z,12.46
2017-03-20T06:33:51.869Z,12.46
2017-03-20T06:34:32.357Z,12.48
2017-03-20T06:35:12.849Z,12.59
2017-03-20T06:35:53.349Z,12.54
2017-03-20T06:36:33.833Z,12.56
2017-03-20T06:37:14.341Z,12.6
2017-03-20T06:37:54.851Z,12.59
2017-03-20T06:38:35.350Z,12.59
2017-03-20T06:39:16.686Z,12.66
2017-03-20T06:39:57.182Z,12.62
2017-03-20T06:40:37.681Z,12.6
2017-03-20T06:41:18.168Z,12.64
2017-03-20T06:41:58.671Z,12.62
2017-03-20T06:42:39.157Z,12.69
2017-03-20T06:43:19.653Z,12.54
2017-03-20T06:44:00.144Z,12.64
2017-03-20T06:44:40.639Z,12.63
2017-03-20T06:45:21.123Z,12.67
2017-03-20T06:46:01.623Z,12.7
2017-03-20T06:46:42.114Z,12.64
2017-03-20T06:47:22.614Z,12.7
2017-03-20T06:48:03.237Z,12.75
2017-03-20T06:48:43.883Z,12.79
2017-03-20T06:49:24.520Z,12.74
2017-03-20T06:50:05.129Z,12.7
2017-03-20T06:50:45.683Z,12.74
2017-03-20T06:51:26.174Z,12.7
2017-03-20T06:52:06.672Z,12.75
2017-03-20T06:52:47.170Z,12.7
2017-03-20T06:53:27.659Z,12.74
2017-03-20T06:54:08.166Z,12.69
2017-03-20T06:54:48.663Z,12.75
2017-03-20T06:55:29.162Z,12.71
2017-03-20T06:56:09.652Z,12.77
2017-03-20T06:56:50.142Z,12.89
2017-03-20T06:57:30.639Z,12.77
2017-03-20T06:58:11.118Z,12.81
2017-03-20T06:58:51.615Z,12.95
2017-03-20T06:59:32.126Z,12.93
2017-03-20T07:00:12.608Z,12.92
2017-03-20T07:00:53.095Z,13.02
2017-03-20T07:01:33.595Z,12.95
2017-03-20T07:02:14.094Z,12.99
2017-03-20T07:02:54.588Z,12.97
2017-03-20T07:03:35.090Z,12.95
2017-03-20T07:04:15.591Z,12.97
2017-03-20T07:04:56.084Z,12.97
2017-03-20T07:05:36.585Z,12.88
2017-03-20T07:06:17.134Z,12.95
2017-03-20T07:06:57.675Z,12.95
2017-03-20T07:07:38.209Z,13.02
2017-03-20T07:08:18.711Z,12.85
2017-03-20T07:08:59.228Z,12.96
2017-03-20T07:09:39.799Z,13
2017-03-20T07:10:20.334Z,13.07
2017-03-20T07:11:00.929Z,13.09
2017-03-20T07:11:41.594Z,12.96
2017-03-20T07:12:22.189Z,12.99
2017-03-20T07:13:02.685Z,13.06
2017-03-20T07:13:43.179Z,13.07
2017-03-20T07:14:23.932Z,13.04
2017-03-20T07:15:04.440Z,13.06
2017-03-20T07:15:45.021Z,13.12
2017-03-20T07:16:25.606Z,13.17
2017-03-20T07:17:06.109Z,13.15
2017-03-20T07:17:46.663Z,13.2
2017-03-20T07:18:27.232Z,13.24
2017-03-20T07:19:07.817Z,13.32
2017-03-20T07:19:48.405Z,13.37
2017-03-20T07:20:28.958Z,13.25
2017-03-20T07:21:09.477Z,13.33
2017-03-20T07:21:50.051Z,13.33
2017-03-20T07:22:30.625Z,13.52
2017-03-20T07:23:11.278Z,13.61
2017-03-20T07:23:51.877Z,13.63
2017-03-20T07:24:32.404Z,13.92
2017-03-20T07:25:12.925Z,14.04
2017-03-20T07:25:53.482Z,14.04
2017-03-20T07:26:34.059Z,14.21
2017-03-20T07:27:14.624Z,14.29
2017-03-20T07:27:55.160Z,14.21
2017-03-20T07:28:35.736Z,13.99
2017-03-20T07:29:16.308Z,14.01
2017-03-20T07:29:56.860Z,13.98
2017-03-20T07:30:37.372Z,13.94
2017-03-20T07:31:17.906Z,14.09
2017-03-20T07:31:58.467Z,13.92
2017-03-20T07:32:39.086Z,13.99
2017-03-20T07:33:19.650Z,13.87
2017-03-20T07:34:00.161Z,14.16
2017-03-20T07:34:40.711Z,14.28
2017-03-20T07:35:21.249Z,14.47
2017-03-20T07:36:01.786Z,14.72
2017-03-20T07:36:42.273Z,14.46
2017-03-20T07:37:22.791Z,14.6
2017-03-20T07:38:03.387Z,14.31
2017-03-20T07:38:43.872Z,14.39
2017-03-20T07:39:24.401Z,14.31
2017-03-20T07:40:04.916Z,14.32
2017-03-20T07:40:45.432Z,14.28
2017-03-20T07:41:25.945Z,14.31
2017-03-20T07:42:06.484Z,14.38
2017-03-20T07:42:47.007Z,14.35
2017-03-20T07:43:27.604Z,14.71
2017-03-20T07:44:08.066Z,15.09
2017-03-20T07:44:48.592Z,15.56
2017-03-20T07:45:29.090Z,15.97
2017-03-20T07:46:09.618Z,15.93
2017-03-20T07:46:50.135Z,16.11
2017-03-20T07:47:30.624Z,16.07
2017-03-20T07:48:11.142Z,16.18
2017-03-20T07:48:51.647Z,15.86
2017-03-20T07:49:32.199Z,15.57
2017-03-20T07:50:12.695Z,15.15
2017-03-20T07:50:53.220Z,14.98
2017-03-20T07:51:33.822Z,14.91
2017-03-20T07:52:14.401Z,14.98
2017-03-20T07:52:54.894Z,15.38
2017-03-20T07:53:35.433Z,15.35
2017-03-20T07:54:16.877Z,15.41
2017-03-20T07:54:57.452Z,15.7
2017-03-20T07:55:37.997Z,15.64
2017-03-20T07:56:18.619Z,16.09
2017-03-20T07:56:59.251Z,15.74
2017-03-20T07:57:39.775Z,15.56
2017-03-20T07:58:20.343Z,16.06
2017-03-20T07:59:00.976Z,16.23
2017-03-20T07:59:41.577Z,15.88
2017-03-20T08:00:22.123Z,16.56
2017-03-20T08:01:02.657Z,16.8
2017-03-20T08:01:43.141Z,16.58
2017-03-20T08:02:23.638Z,16.45
2017-03-20T08:03:04.132Z,16.2
2017-03-20T08:03:44.633Z,16.62
2017-03-20T08:04:25.151Z,16.4
2017-03-20T08:05:05.639Z,16.52
2017-03-20T08:05:46.177Z,16.83
2017-03-20T08:06:26.662Z,16.56
2017-03-20T08:07:07.155Z,17.2
2017-03-20T08:07:47.649Z,17.25
2017-03-20T08:08:28.137Z,16.7
2017-03-20T08:09:08.632Z,17.11
2017-03-20T08:09:49.122Z,16.99
2017-03-20T08:10:29.620Z,17.14
2017-03-20T08:11:10.126Z,16.2
2017-03-20T08:11:50.633Z,17.11
2017-03-20T08:12:31.133Z,16.25
2017-03-20T08:13:11.639Z,16.78
2017-03-20T08:13:52.147Z,16.62
2017-03-20T08:14:32.641Z,15.92
2017-03-20T08:15:13.126Z,16.09
2017-03-20T08:15:53.641Z,16.45
2017-03-20T08:16:34.146Z,16.41
2017-03-20T08:17:14.664Z,16.25
2017-03-20T08:17:55.221Z,16.65
2017-03-20T08:19:32.568Z,16.15
2017-03-20T08:20:13.149Z,16.06
2017-03-20T08:20:53.741Z,15.89
2017-03-20T08:21:34.386Z,15.52
2017-03-20T08:22:14.915Z,15.51
2017-03-20T08:22:55.482Z,15.64
2017-03-20T08:23:35.950Z,15.75
2017-03-20T08:24:16.499Z,16.14
2017-03-20T08:24:57.002Z,16
2017-03-20T08:25:37.502Z,16.34
2017-03-20T08:26:18.021Z,16.42
2017-03-20T08:26:58.510Z,15.89
2017-03-20T08:27:39.012Z,15.57
2017-03-20T08:28:19.513Z,15.88
2017-03-20T08:29:00.007Z,15.48
2017-03-20T08:29:40.508Z,15.51
2017-03-20T08:30:20.996Z,15.57
2017-03-20T08:31:01.496Z,15.54
2017-03-20T08:31:42.024Z,15.52
2017-03-20T08:32:22.514Z,15.78
2017-03-20T08:33:03.025Z,15.51
2017-03-20T08:33:43.545Z,15.12
2017-03-20T08:34:24.135Z,15.06
2017-03-20T08:35:04.669Z,15.09
2017-03-20T08:35:45.294Z,14.98
2017-03-20T08:36:25.778Z,14.69
2017-03-20T08:37:06.265Z,14.72
2017-03-20T08:37:46.774Z,14.81
2017-03-20T08:38:27.290Z,15.05
2017-03-20T08:39:08.475Z,15.08
2017-03-20T08:39:49.027Z,15.09
2017-03-20T08:40:29.554Z,15.13
2017-03-20T08:41:10.085Z,15.12
2017-03-20T08:41:50.608Z,15.17
2017-03-20T08:42:31.142Z,15.31
2017-03-20T08:43:11.646Z,15.56
2017-03-20T08:43:52.134Z,15.28
2017-03-20T08:44:32.633Z,15.06
2017-03-20T08:45:13.136Z,15.06
2017-03-20T08:45:53.635Z,15.05
2017-03-20T08:46:34.133Z,15.01
2017-03-20T08:47:14.713Z,15.01
2017-03-20T08:47:55.328Z,15.06